Map

Track Data

SID SEASON NUMBER BASIN SUBBASIN NAME ISO_TIME NATURE LAT LON WMO_WIND WMO_PRES WMO_AGENCY TRACK_TYPE DIST2LAND LANDFALL IFLAG USA_AGENCY USA_ATCF_ID USA_LAT USA_LON USA_RECORD USA_STATUS USA_WIND USA_PRES USA_SSHS USA_R34_NE USA_R34_SE USA_R34_SW USA_R34_NW USA_R50_NE USA_R50_SE USA_R50_SW USA_R50_NW USA_R64_NE USA_R64_SE USA_R64_SW USA_R64_NW USA_POCI USA_ROCI USA_RMW USA_EYE TOKYO_LAT TOKYO_LON TOKYO_GRADE TOKYO_WIND TOKYO_PRES TOKYO_R50_DIR TOKYO_R50_LONG TOKYO_R50_SHORT TOKYO_R30_DIR TOKYO_R30_LONG TOKYO_R30_SHORT TOKYO_LAND CMA_LAT CMA_LON CMA_CAT CMA_WIND CMA_PRES HKO_LAT HKO_LON HKO_CAT HKO_WIND HKO_PRES NEWDELHI_LAT NEWDELHI_LON NEWDELHI_GRADE NEWDELHI_WIND NEWDELHI_PRES NEWDELHI_CI NEWDELHI_DP NEWDELHI_POCI REUNION_LAT REUNION_LON REUNION_TYPE REUNION_WIND REUNION_PRES REUNION_TNUM REUNION_CI REUNION_RMW REUNION_R34_NE REUNION_R34_SE REUNION_R34_SW REUNION_R34_NW REUNION_R50_NE REUNION_R50_SE REUNION_R50_SW REUNION_R50_NW REUNION_R64_NE REUNION_R64_SE REUNION_R64_SW REUNION_R64_NW BOM_LAT BOM_LON BOM_TYPE BOM_WIND BOM_PRES BOM_TNUM BOM_CI BOM_RMW BOM_R34_NE BOM_R34_SE BOM_R34_SW BOM_R34_NW BOM_R50_NE BOM_R50_SE BOM_R50_SW BOM_R50_NW BOM_R64_NE BOM_R64_SE BOM_R64_SW BOM_R64_NW BOM_ROCI BOM_POCI BOM_EYE BOM_POS_METHOD BOM_PRES_METHOD NADI_LAT NADI_LON NADI_CAT NADI_WIND NADI_PRES WELLINGTON_LAT WELLINGTON_LON WELLINGTON_WIND WELLINGTON_PRES DS824_LAT DS824_LON DS824_STAGE DS824_WIND DS824_PRES TD9636_LAT TD9636_LON TD9636_STAGE TD9636_WIND TD9636_PRES TD9635_LAT TD9635_LON TD9635_WIND TD9635_PRES TD9635_ROCI NEUMANN_LAT NEUMANN_LON NEUMANN_CLASS NEUMANN_WIND NEUMANN_PRES MLC_LAT MLC_LON MLC_CLASS MLC_WIND MLC_PRES USA_GUST BOM_GUST BOM_GUST_PER REUNION_GUST REUNION_GUST_PER USA_SEAHGT USA_SEARAD_NE USA_SEARAD_SE USA_SEARAD_SW USA_SEARAD_NW STORM_SPEED STORM_DIR
1929330N11084 1929 73 NI BB NOT_NAMED 1929-11-26 00:00:00 TS 11.0000 83.7000 main 370 370 _________O____ -1 11.0000 83.7000 TC 30 3 11
1929330N11084 1929 73 NI BB NOT_NAMED 1929-11-26 03:00:00 TS 11.1400 83.7283 main 376 376 _________PO___ -1 11.2100 83.7425 TC 30 11.0000 83.7000 1 3 15
1929330N11084 1929 73 NI BB NOT_NAMED 1929-11-26 06:00:00 TS 11.3081 83.7831 main 397 397 _________OP___ -1 11.4000 83.8000 TC 30 11.1703 83.7578 1 4 21
1929330N11084 1929 73 NI BB NOT_NAMED 1929-11-26 09:00:00 TS 11.4653 83.8583 main 417 415 _________PP___ -1 11.5575 83.8850 TC 30 11.3425 83.8226 1 3 29
1929330N11084 1929 73 NI BB NOT_NAMED 1929-11-26 12:00:00 TS 11.6092 83.9505 main 425 423 _________OP___ -1 11.7000 84.0000 TC 30 11.5184 83.9010 1 4 35
1929330N11084 1929 73 NI BB NOT_NAMED 1929-11-26 15:00:00 TS 11.7713 84.0750 main 431 429 _________PO___ -1 11.8425 84.1500 TC 30 11.7000 84.0000 1 4 37
1929330N11084 1929 73 NI BB NOT_NAMED 1929-11-26 18:00:00 TS 11.9436 84.2114 main 440 438 _________OP___ -1 12.0000 84.3000 TC 30 11.8872 84.1227 1 5 35
1929330N11084 1929 73 NI BB NOT_NAMED 1929-11-26 21:00:00 TS 12.1400 84.3362 main 447 446 _________PP___ -1 12.2075 84.4150 TC 30 12.0726 84.2574 1 4 31
1929330N11084 1929 73 NI BB NOT_NAMED 1929-11-27 00:00:00 TS 12.3233 84.4442 main 456 456 _________OP___ -1 12.4000 84.5000 TC 30 12.2466 84.3884 1 4 31
1929330N11084 1929 73 NI BB NOT_NAMED 1929-11-27 03:00:00 TS 12.4575 84.5288 main 464 464 _________PO___ -1 12.5150 84.5575 TC 30 12.4000 84.5000 1 3 30
1929330N11084 1929 73 NI BB NOT_NAMED 1929-11-27 06:00:00 TS 12.5608 84.5818 main 472 470 _________OP___ -1 12.6000 84.6000 TC 30 12.5215 84.5636 1 2 26
1929330N11084 1929 73 NI BB NOT_NAMED 1929-11-27 09:00:00 TS 12.6612 84.6251 main 470 470 _________PP___ -1 12.7000 84.6425 TC 30 12.6224 84.6077 1 2 24
1929330N11084 1929 73 NI BB NOT_NAMED 1929-11-27 12:00:00 TS 12.7561 84.6740 main 480 480 _________OP___ -1 12.8000 84.7000 TC 30 12.7121 84.6479 1 2 32
1929330N11084 1929 73 NI BB NOT_NAMED 1929-11-27 15:00:00 TS 12.8500 84.7462 main 478 478 _________PO___ -1 12.9000 84.7925 TC 31 12.8000 84.7000 1 3 41
1929330N11084 1929 73 NI BB NOT_NAMED 1929-11-27 18:00:00 TS 12.9480 84.8408 main 489 484 _________OP___ -1 13.0000 84.9000 TC 32 12.8959 84.7816 1 3 44
1929330N11084 1929 73 NI BB NOT_NAMED 1929-11-27 21:00:00 TS 13.0462 84.9350 main 490 481 _________PP___ -1 13.1000 84.9925 TC 33 12.9925 84.8775 1 3 45
1929330N11084 1929 73 NI BB NOT_NAMED 1929-11-28 00:00:00 TS 13.1464 85.0424 main 487 478 _________OP___ -1 13.2000 85.1000 TC 34 13.0928 84.9847 1 3 50
1929330N11084 1929 73 NI BB NOT_NAMED 1929-11-28 03:00:00 TS 13.2463 85.1750 main 491 481 _________PO___ -1 13.2925 85.2500 TC 36 13.2000 85.1000 2 3 51
1929330N11084 1929 73 NI BB NOT_NAMED 1929-11-28 06:00:00 TS 13.3569 85.3130 main 481 480 _________OP___ -1 13.4000 85.4000 TC 39 13.3138 85.2259 2 4 46
1929330N11084 1929 73 NI BB NOT_NAMED 1929-11-28 09:00:00 TS 13.4888 85.4325 main 480 480 _________PP___ -1 13.5425 85.5075 TC 42 13.4350 85.3575 2 4 39
1929330N11084 1929 73 NI BB NOT_NAMED 1929-11-28 12:00:00 TS 13.6319 85.5426 main 480 472 _________OP___ -1 13.7000 85.6000 TC 45 13.5638 85.4853 2 4 37
1929330N11084 1929 73 NI BB NOT_NAMED 1929-11-28 15:00:00 TS 13.7750 85.6537 main 481 473 _________PO___ -1 13.8500 85.7075 TC 45 13.7000 85.6000 3 4 38
1929330N11084 1929 73 NI BB NOT_NAMED 1929-11-28 18:00:00 TS 13.9274 85.7832 main 482 475 _________OP___ -1 14.0000 85.8000 TC 45 13.8548 85.7663 3 4 39
1929330N11084 1929 73 NI BB NOT_NAMED 1929-11-28 21:00:00 TS 14.0748 85.9085 main 476 470 _________PP___ -1 14.1349 85.9099 TC 45 14.0146 85.9071 3 3 26
1929330N11084 1929 73 NI BB NOT_NAMED 1929-11-29 00:00:00 TS 14.2336 85.9347 main 470 448 _________OP___ -1 14.3000 85.9000 TC 45 14.1671 85.9694 3 4 343
1929330N11084 1929 73 NI BB NOT_NAMED 1929-11-29 03:00:00 TS 14.4437 85.7914 main 448 409 _________PO___ -1 14.5874 85.6828 TC 41 14.3000 85.9000 3 6 313
1929330N11084 1929 73 NI BB NOT_NAMED 1929-11-29 06:00:00 TS 14.6491 85.4772 main 409 367 _________OP___ -1 14.8000 85.3000 TC 37 14.4982 85.6543 3 8 293
1929330N11084 1929 73 NI BB NOT_NAMED 1929-11-29 09:00:00 TS 14.7401 85.0525 main 367 325 _________PP___ -1 14.8200 84.8302 TC 33 14.6601 85.2749 3 9 271
1929330N11084 1929 73 NI BB NOT_NAMED 1929-11-29 12:00:00 TS 14.6585 84.5539 main 325 309 _________OP___ -1 14.6000 84.3000 TC 30 14.7169 84.8078 3 10 249
1929330N11084 1929 73 NI BB NOT_NAMED 1929-11-29 15:00:00 TS 14.3587 84.0499 main 306 306 _________PO___ -1 14.1174 83.7998 TC 30 14.6000 84.3000 1 13 230
1929330N11084 1929 73 NI BB NOT_NAMED 1929-11-29 18:00:00 TS 13.8327 83.5325 main 337 292 _________OP___ -1 13.5000 83.3000 TC 30 14.1654 83.7651 1 15 223
1929330N11084 1929 73 NI BB NOT_NAMED 1929-11-29 21:00:00 TS 13.2293 82.9805 main 292 247 _________PP___ -1 12.8901 82.7472 TC 30 13.5685 83.2137 1 15 221
1929330N11084 1929 73 NI BB NOT_NAMED 1929-11-30 00:00:00 TS 12.6686 82.5029 main 247 217 _________OP___ -1 12.4000 82.3000 TC 30 12.9371 82.7058 1 12 219
1929330N11084 1929 73 NI BB NOT_NAMED 1929-11-30 03:00:00 TS 12.2949 82.1952 main 218 200 _________PO___ -1 12.1899 82.0904 TC 30 12.4000 82.3000 1 7 220
1929330N11084 1929 73 NI BB NOT_NAMED 1929-11-30 06:00:00 TS 12.1193 82.0323 main 200 193 _________OP___ -1 12.1000 82.0000 TC 30 12.1386 82.0646 1 4 220
1929330N11084 1929 73 NI BB NOT_NAMED 1929-11-30 09:00:00 TS 11.9685 81.9121 main 193 186 _________PP___ -1 11.9500 81.8925 TC 30 11.9869 81.9317 1 3 216
1929330N11084 1929 73 NI BB NOT_NAMED 1929-11-30 12:00:00 TS 11.8459 81.8289 main 190 190 _________OP___ -1 11.8000 81.8000 TC 30 11.8919 81.8579 1 3 214
1929330N11084 1929 73 NI BB NOT_NAMED 1929-11-30 15:00:00 TS 11.7287 81.7500 main 195 186 _________PO___ -1 11.6575 81.7000 TC 30 11.8000 81.8000 1 3 212
1929330N11084 1929 73 NI BB NOT_NAMED 1929-11-30 18:00:00 TS 11.5965 81.6705 main 191 182 _________OP___ -1 11.5000 81.6000 TC 30 11.6689 81.7234 1 4 209
1929330N11084 1929 73 NI BB NOT_NAMED 1929-11-30 21:00:00 TS 11.4241 81.5760 main 186 174 _________PP___ -1 11.3100 81.5000 TC 30 11.5002 81.6267 1 4 208
1929330N11084 1929 73 NI BB NOT_NAMED 1929-12-01 00:00:00 TS 11.2376 81.4778 main 174 163 _________OP___ -1 11.1000 81.4000 TC 30 11.3064 81.5166 1 4 208
1929330N11084 1929 73 NI BB NOT_NAMED 1929-12-01 03:00:00 NR 11.1000 81.4000 main 163 __________O___ -1 TC 11.1000 81.4000 1 3 210

About IBTrACS Database

This database is a web-friendly format of International Best Track Archive for Climate Stewardship (IBTrACS), a global best track data archive curated by NOAA dating back to 1842.

Updated: 2021-12-06